Terminal Aerodrome Forecast
Issued by NWS

Home | Current Version | Previous Version | Text Only | Print | Product List | Glossary On
Versions: 1 2 3 4 5 6 7 8 9 10 11 12 13 14
000
FTUS42 KMLB 260520
TAFTIX
TAF
KTIX 260520Z 2606/2706 21003KT P6SM SCT050
     FM261400 VRB04KT P6SM SCT025 SCT300
     FM261630 09008KT P6SM SCT050 SCT300
     FM262030 12010KT P6SM SCT050 SCT300
     FM270200 17004KT P6SM FEW050
      AMD NOT SKED TIL 261100=

USA.gov is the U.S. government's official web portal to all federal, state and local government web resources and services.